aviador You're here:

LTCJ Decoded Metar

BATMAN in TURKEY
Report Time2017-05-24 17:20:00
UTC Time2017-05-24 17:52:15
Flight Rules vfr VFR
Wind220° at 04 kt
W.Decomp.*RWY 20: 3.8 kt HW 1.1 kt RCW
W.Rank220° ranks 9
Current wind is below 220° avg. (5.3)
Visibility9999 m
Phenomena:N/A
Clouds:N/A
Expected CloudBase > 4,000 ft AGL from Temp-Dew spread
CeilingNone
Temp17°C (ISA +6)
Dew Point07°C (52% RH)
AAT14.9°C
QNH1013 hPa
Density Alt2,559 ft
Elevation1,772 ft
Report Wrong Elevation
Raw Report
LTCJ 241720Z 22004KT CAVOK 17/07 Q1013=

Extra information for LTCJ:More info

Metar Taf Metar & Taf Last 4 Metars F.Rules Stats Wind Profile Meteogram Temp Stats Airport Information Weather charts Add Link Nearby VenuesMetar ALERT Operation Metar Decoded Social comments